sensor_id;sensor_type;location;lat;lon;timestamp;pressure;altitude;pressure_sealevel;temperature;humidity
84026;BME280;74110;45.660;25.582;2024-02-21T00:00:24;95785.65;;;6.15;70.24
84026;BME280;74110;45.660;25.582;2024-02-21T00:03:12;95785.03;;;6.07;70.32
84026;BME280;74110;45.660;25.582;2024-02-21T00:05:40;95782.80;;;5.97;70.60
84026;BME280;74110;45.660;25.582;2024-02-21T00:08:08;95778.84;;;5.88;70.82
84026;BME280;74110;45.660;25.582;2024-02-21T00:10:37;95779.05;;;5.83;71.16
84026;BME280;74110;45.660;25.582;2024-02-21T00:13:05;95775.83;;;5.79;71.24
84026;BME280;74110;45.660;25.582;2024-02-21T00:15:34;95774.95;;;5.75;71.49
84026;BME280;74110;45.660;25.582;2024-02-21T00:18:03;95774.37;;;5.69;71.57
84026;BME280;74110;45.660;25.582;2024-02-21T00:20:31;95769.73;;;5.68;71.34
84026;BME280;74110;45.660;25.582;2024-02-21T00:23:01;95763.81;;;5.68;71.25
84026;BME280;74110;45.660;25.582;2024-02-21T00:25:30;95765.46;;;5.69;71.14
84026;BME280;74110;45.660;25.582;2024-02-21T00:27:59;95757.66;;;5.57;71.59
84026;BME280;74110;45.660;25.582;2024-02-21T00:30:27;95757.75;;;5.54;71.36
84026;BME280;74110;45.660;25.582;2024-02-21T00:32:55;95759.65;;;5.55;70.97
84026;BME280;74110;45.660;25.582;2024-02-21T00:35:24;95760.48;;;5.58;71.33
84026;BME280;74110;45.660;25.582;2024-02-21T00:37:53;95760.91;;;5.62;71.61
84026;BME280;74110;45.660;25.582;2024-02-21T00:40:22;95753.72;;;5.65;71.27
84026;BME280;74110;45.660;25.582;2024-02-21T00:42:51;95750.92;;;5.66;71.40
84026;BME280;74110;45.660;25.582;2024-02-21T00:45:20;95747.38;;;5.63;71.56
84026;BME280;74110;45.660;25.582;2024-02-21T00:47:48;95744.15;;;5.61;71.69
84026;BME280;74110;45.660;25.582;2024-02-21T00:50:17;95741.95;;;5.56;71.83
84026;BME280;74110;45.660;25.582;2024-02-21T00:52:45;95741.00;;;5.51;72.05
84026;BME280;74110;45.660;25.582;2024-02-21T00:55:13;95737.50;;;5.48;71.83
84026;BME280;74110;45.660;25.582;2024-02-21T00:57:41;95735.23;;;5.48;71.83
84026;BME280;74110;45.660;25.582;2024-02-21T01:00:10;95730.58;;;5.46;71.71
84026;BME280;74110;45.660;25.582;2024-02-21T01:02:40;95731.14;;;5.45;71.87
84026;BME280;74110;45.660;25.582;2024-02-21T01:05:08;95728.35;;;5.52;72.15
84026;BME280;74110;45.660;25.582;2024-02-21T01:07:36;95722.13;;;5.58;71.69
84026;BME280;74110;45.660;25.582;2024-02-21T01:10:06;95720.02;;;5.58;71.58
84026;BME280;74110;45.660;25.582;2024-02-21T01:12:35;95715.19;;;5.56;71.28
84026;BME280;74110;45.660;25.582;2024-02-21T01:15:04;95718.23;;;5.52;71.12
84026;BME280;74110;45.660;25.582;2024-02-21T01:17:33;95711.71;;;5.48;71.24
84026;BME280;74110;45.660;25.582;2024-02-21T01:20:03;95710.83;;;5.43;71.20
84026;BME280;74110;45.660;25.582;2024-02-21T01:22:34;95709.73;;;5.39;71.36
84026;BME280;74110;45.660;25.582;2024-02-21T01:25:03;95703.79;;;5.38;71.62
84026;BME280;74110;45.660;25.582;2024-02-21T01:27:32;95706.67;;;5.37;71.28
84026;BME280;74110;45.660;25.582;2024-02-21T01:30:00;95707.08;;;5.39;71.23
84026;BME280;74110;45.660;25.582;2024-02-21T01:32:28;95702.07;;;5.48;71.88
84026;BME280;74110;45.660;25.582;2024-02-21T01:34:58;95704.38;;;5.56;71.38
84026;BME280;74110;45.660;25.582;2024-02-21T01:37:26;95702.27;;;5.62;71.08
84026;BME280;74110;45.660;25.582;2024-02-21T01:39:56;95701.23;;;5.58;70.32
84026;BME280;74110;45.660;25.582;2024-02-21T01:42:24;95703.02;;;5.37;69.77
84026;BME280;74110;45.660;25.582;2024-02-21T01:44:52;95700.84;;;5.20;70.19
84026;BME280;74110;45.660;25.582;2024-02-21T01:47:21;95700.08;;;5.12;70.62
84026;BME280;74110;45.660;25.582;2024-02-21T01:49:52;95702.39;;;5.12;70.51
84026;BME280;74110;45.660;25.582;2024-02-21T01:52:20;95705.71;;;5.17;70.48
84026;BME280;74110;45.660;25.582;2024-02-21T01:54:48;95706.23;;;5.23;70.97
84026;BME280;74110;45.660;25.582;2024-02-21T01:57:17;95708.29;;;5.28;71.36
84026;BME280;74110;45.660;25.582;2024-02-21T01:59:46;95709.04;;;5.31;71.43
84026;BME280;74110;45.660;25.582;2024-02-21T02:02:15;95708.70;;;5.34;71.61
84026;BME280;74110;45.660;25.582;2024-02-21T02:04:46;95705.23;;;5.35;72.16
84026;BME280;74110;45.660;25.582;2024-02-21T02:07:14;95698.59;;;5.35;71.58
84026;BME280;74110;45.660;25.582;2024-02-21T02:09:43;95699.60;;;5.37;71.85
84026;BME280;74110;45.660;25.582;2024-02-21T02:12:14;95697.73;;;5.35;71.80
84026;BME280;74110;45.660;25.582;2024-02-21T02:14:43;95695.95;;;5.34;72.18
84026;BME280;74110;45.660;25.582;2024-02-21T02:17:11;95699.66;;;5.35;72.96
84026;BME280;74110;45.660;25.582;2024-02-21T02:19:41;95702.99;;;5.40;72.92
84026;BME280;74110;45.660;25.582;2024-02-21T02:22:22;95699.52;;;5.40;73.36
84026;BME280;74110;45.660;25.582;2024-02-21T02:24:52;95701.23;;;5.42;73.12
84026;BME280;74110;45.660;25.582;2024-02-21T02:27:20;95704.19;;;5.43;72.52
84026;BME280;74110;45.660;25.582;2024-02-21T02:29:50;95699.16;;;5.42;72.45
84026;BME280;74110;45.660;25.582;2024-02-21T02:32:19;95695.40;;;5.38;72.40
84026;BME280;74110;45.660;25.582;2024-02-21T02:34:47;95694.63;;;5.21;73.80
84026;BME280;74110;45.660;25.582;2024-02-21T02:37:15;95693.73;;;5.02;74.61
84026;BME280;74110;45.660;25.582;2024-02-21T02:39:45;95693.58;;;4.93;74.78
84026;BME280;74110;45.660;25.582;2024-02-21T02:42:13;95691.89;;;4.91;74.33
84026;BME280;74110;45.660;25.582;2024-02-21T02:44:41;95686.05;;;4.94;73.78
84026;BME280;74110;45.660;25.582;2024-02-21T02:47:10;95686.60;;;4.96;73.30
84026;BME280;74110;45.660;25.582;2024-02-21T02:49:37;95684.93;;;4.92;73.27
84026;BME280;74110;45.660;25.582;2024-02-21T02:52:07;95681.68;;;4.88;73.49
84026;BME280;74110;45.660;25.582;2024-02-21T02:54:37;95683.00;;;4.83;72.55
84026;BME280;74110;45.660;25.582;2024-02-21T02:57:05;95684.45;;;4.79;72.62
84026;BME280;74110;45.660;25.582;2024-02-21T02:59:33;95685.55;;;4.70;74.02
84026;BME280;74110;45.660;25.582;2024-02-21T03:02:02;95685.89;;;4.62;73.97
84026;BME280;74110;45.660;25.582;2024-02-21T03:04:31;95684.34;;;4.58;73.64
84026;BME280;74110;45.660;25.582;2024-02-21T03:07:00;95684.66;;;4.54;73.75
84026;BME280;74110;45.660;25.582;2024-02-21T03:09:28;95685.17;;;4.54;73.91
84026;BME280;74110;45.660;25.582;2024-02-21T03:11:57;95686.80;;;4.52;74.70
84026;BME280;74110;45.660;25.582;2024-02-21T03:14:30;95688.84;;;4.48;74.73
84026;BME280;74110;45.660;25.582;2024-02-21T03:16:59;95687.65;;;4.40;75.15
84026;BME280;74110;45.660;25.582;2024-02-21T03:19:29;95690.23;;;4.35;75.00
84026;BME280;74110;45.660;25.582;2024-02-21T03:21:59;95693.73;;;4.33;74.99
84026;BME280;74110;45.660;25.582;2024-02-21T03:24:31;95692.07;;;4.30;74.85
84026;BME280;74110;45.660;25.582;2024-02-21T03:27:00;95699.34;;;4.27;74.70
84026;BME280;74110;45.660;25.582;2024-02-21T03:29:29;95706.11;;;4.25;74.78
84026;BME280;74110;45.660;25.582;2024-02-21T03:31:58;95706.10;;;4.24;73.94
84026;BME280;74110;45.660;25.582;2024-02-21T03:34:26;95710.39;;;4.27;74.22
84026;BME280;74110;45.660;25.582;2024-02-21T03:37:03;95711.95;;;4.26;74.87
84026;BME280;74110;45.660;25.582;2024-02-21T03:39:32;95708.95;;;4.21;75.16
84026;BME280;74110;45.660;25.582;2024-02-21T03:42:01;95711.19;;;4.15;75.19
84026;BME280;74110;45.660;25.582;2024-02-21T03:44:32;95713.00;;;4.04;75.37
84026;BME280;74110;45.660;25.582;2024-02-21T03:47:01;95716.92;;;4.02;75.66
84026;BME280;74110;45.660;25.582;2024-02-21T03:49:29;95717.72;;;4.03;74.53
84026;BME280;74110;45.660;25.582;2024-02-21T03:51:58;95716.43;;;4.09;74.23
84026;BME280;74110;45.660;25.582;2024-02-21T03:54:26;95720.71;;;4.15;74.92
84026;BME280;74110;45.660;25.582;2024-02-21T03:56:55;95719.49;;;4.18;75.17
84026;BME280;74110;45.660;25.582;2024-02-21T03:59:23;95722.53;;;4.26;74.98
84026;BME280;74110;45.660;25.582;2024-02-21T04:01:54;95722.64;;;4.26;75.04
84026;BME280;74110;45.660;25.582;2024-02-21T04:04:23;95723.95;;;4.29;75.24
84026;BME280;74110;45.660;25.582;2024-02-21T04:06:52;95724.23;;;4.36;75.05
84026;BME280;74110;45.660;25.582;2024-02-21T04:09:20;95721.00;;;4.33;75.27
84026;BME280;74110;45.660;25.582;2024-02-21T04:11:54;95720.49;;;4.31;75.46
84026;BME280;74110;45.660;25.582;2024-02-21T04:14:24;95720.23;;;4.26;75.75
84026;BME280;74110;45.660;25.582;2024-02-21T04:16:54;95720.88;;;4.27;75.80
84026;BME280;74110;45.660;25.582;2024-02-21T04:19:22;95719.61;;;4.32;75.70
84026;BME280;74110;45.660;25.582;2024-02-21T04:21:50;95717.64;;;4.43;75.75
84026;BME280;74110;45.660;25.582;2024-02-21T04:24:18;95717.05;;;4.52;75.52
84026;BME280;74110;45.660;25.582;2024-02-21T04:26:46;95721.21;;;4.51;74.85
84026;BME280;74110;45.660;25.582;2024-02-21T04:29:15;95717.75;;;4.39;75.33
84026;BME280;74110;45.660;25.582;2024-02-21T04:31:43;95718.66;;;4.31;75.93
84026;BME280;74110;45.660;25.582;2024-02-21T04:34:13;95721.55;;;4.30;76.35
84026;BME280;74110;45.660;25.582;2024-02-21T04:36:42;95720.94;;;4.28;76.25
84026;BME280;74110;45.660;25.582;2024-02-21T04:39:11;95718.79;;;4.33;76.03
84026;BME280;74110;45.660;25.582;2024-02-21T04:41:39;95719.88;;;4.45;76.06
84026;BME280;74110;45.660;25.582;2024-02-21T04:44:07;95713.15;;;4.55;75.82
84026;BME280;74110;45.660;25.582;2024-02-21T04:46:37;95716.41;;;4.64;75.60
84026;BME280;74110;45.660;25.582;2024-02-21T04:49:04;95720.17;;;4.71;75.68
84026;BME280;74110;45.660;25.582;2024-02-21T04:51:32;95718.11;;;4.76;74.94
84026;BME280;74110;45.660;25.582;2024-02-21T04:54:03;95718.86;;;4.72;74.64
84026;BME280;74110;45.660;25.582;2024-02-21T04:56:32;95719.74;;;4.71;74.89
84026;BME280;74110;45.660;25.582;2024-02-21T04:59:02;95720.99;;;4.70;74.90
84026;BME280;74110;45.660;25.582;2024-02-21T05:01:31;95725.38;;;4.61;75.02
84026;BME280;74110;45.660;25.582;2024-02-21T05:03:59;95722.23;;;4.62;75.10
84026;BME280;74110;45.660;25.582;2024-02-21T05:06:30;95724.60;;;4.71;75.14
84026;BME280;74110;45.660;25.582;2024-02-21T05:08:59;95726.03;;;4.77;74.97
84026;BME280;74110;45.660;25.582;2024-02-21T05:11:27;95725.81;;;4.76;74.66
84026;BME280;74110;45.660;25.582;2024-02-21T05:13:55;95723.89;;;4.73;75.37
84026;BME280;74110;45.660;25.582;2024-02-21T05:16:25;95724.70;;;4.70;75.52
84026;BME280;74110;45.660;25.582;2024-02-21T05:18:54;95729.13;;;4.70;75.62
84026;BME280;74110;45.660;25.582;2024-02-21T05:21:25;95727.95;;;4.70;75.69
84026;BME280;74110;45.660;25.582;2024-02-21T05:23:53;95725.89;;;4.70;75.68
84026;BME280;74110;45.660;25.582;2024-02-21T05:26:23;95729.30;;;4.77;75.50
84026;BME280;74110;45.660;25.582;2024-02-21T05:28:51;95732.89;;;4.82;75.27
84026;BME280;74110;45.660;25.582;2024-02-21T05:31:20;95732.76;;;4.81;75.43
84026;BME280;74110;45.660;25.582;2024-02-21T05:33:54;95735.46;;;4.82;75.42
84026;BME280;74110;45.660;25.582;2024-02-21T05:36:23;95735.29;;;4.82;75.53
84026;BME280;74110;45.660;25.582;2024-02-21T05:38:52;95736.52;;;4.83;75.70
84026;BME280;74110;45.660;25.582;2024-02-21T05:41:20;95738.07;;;4.85;75.78
84026;BME280;74110;45.660;25.582;2024-02-21T05:43:49;95738.14;;;4.88;75.39
84026;BME280;74110;45.660;25.582;2024-02-21T05:46:20;95739.14;;;4.91;75.36
84026;BME280;74110;45.660;25.582;2024-02-21T05:48:57;95743.30;;;4.96;75.27
84026;BME280;74110;45.660;25.582;2024-02-21T05:51:26;95745.76;;;5.00;75.45
84026;BME280;74110;45.660;25.582;2024-02-21T05:53:55;95748.16;;;5.08;75.14
84026;BME280;74110;45.660;25.582;2024-02-21T05:56:23;95747.26;;;5.18;74.90
84026;BME280;74110;45.660;25.582;2024-02-21T05:58:52;95752.89;;;5.29;74.46
84026;BME280;74110;45.660;25.582;2024-02-21T06:01:24;95752.96;;;5.37;73.66
84026;BME280;74110;45.660;25.582;2024-02-21T06:03:52;95752.59;;;5.45;73.40
84026;BME280;74110;45.660;25.582;2024-02-21T06:06:20;95753.11;;;5.48;73.10
84026;BME280;74110;45.660;25.582;2024-02-21T06:08:49;95757.80;;;5.48;73.17
84026;BME280;74110;45.660;25.582;2024-02-21T06:11:17;95759.84;;;5.45;73.17
84026;BME280;74110;45.660;25.582;2024-02-21T06:13:46;95754.16;;;5.42;73.66
84026;BME280;74110;45.660;25.582;2024-02-21T06:16:15;95758.61;;;5.43;73.86
84026;BME280;74110;45.660;25.582;2024-02-21T06:18:45;95759.62;;;5.51;73.99
84026;BME280;74110;45.660;25.582;2024-02-21T06:21:14;95757.16;;;5.59;74.45
84026;BME280;74110;45.660;25.582;2024-02-21T06:23:44;95757.86;;;5.68;74.09
84026;BME280;74110;45.660;25.582;2024-02-21T06:26:13;95755.49;;;5.75;73.48
84026;BME280;74110;45.660;25.582;2024-02-21T06:28:41;95758.58;;;5.82;73.00
84026;BME280;74110;45.660;25.582;2024-02-21T06:31:11;95760.19;;;5.86;72.86
84026;BME280;74110;45.660;25.582;2024-02-21T06:33:51;95766.38;;;5.89;72.70
84026;BME280;74110;45.660;25.582;2024-02-21T06:36:24;95767.03;;;5.92;72.47
84026;BME280;74110;45.660;25.582;2024-02-21T06:38:54;95769.11;;;5.94;72.22
84026;BME280;74110;45.660;25.582;2024-02-21T06:41:47;95765.98;;;5.93;71.83
84026;BME280;74110;45.660;25.582;2024-02-21T06:44:30;95766.70;;;5.89;72.10
84026;BME280;74110;45.660;25.582;2024-02-21T06:47:08;95767.39;;;5.91;72.57
84026;BME280;74110;45.660;25.582;2024-02-21T06:49:37;95770.39;;;5.88;72.14
84026;BME280;74110;45.660;25.582;2024-02-21T06:52:20;95765.69;;;5.86;72.27
84026;BME280;74110;45.660;25.582;2024-02-21T06:54:48;95764.72;;;5.86;72.08
84026;BME280;74110;45.660;25.582;2024-02-21T06:57:45;95762.70;;;5.84;71.87
84026;BME280;74110;45.660;25.582;2024-02-21T07:00:36;95765.41;;;5.88;71.77
84026;BME280;74110;45.660;25.582;2024-02-21T07:03:34;95768.12;;;5.88;71.63
84026;BME280;74110;45.660;25.582;2024-02-21T07:06:48;95765.86;;;5.89;71.64
84026;BME280;74110;45.660;25.582;2024-02-21T07:09:31;95763.37;;;5.96;72.20
84026;BME280;74110;45.660;25.582;2024-02-21T07:12:07;95763.36;;;6.02;72.34
84026;BME280;74110;45.660;25.582;2024-02-21T07:14:57;95766.88;;;6.06;71.64
84026;BME280;74110;45.660;25.582;2024-02-21T07:18:06;95767.20;;;6.10;71.33
84026;BME280;74110;45.660;25.582;2024-02-21T07:20:41;95766.75;;;6.14;70.95
84026;BME280;74110;45.660;25.582;2024-02-21T07:23:19;95764.40;;;6.18;70.77
84026;BME280;74110;45.660;25.582;2024-02-21T07:26:17;95764.00;;;6.21;70.46
84026;BME280;74110;45.660;25.582;2024-02-21T07:28:46;95762.80;;;6.25;70.39
84026;BME280;74110;45.660;25.582;2024-02-21T07:31:48;95763.89;;;6.30;70.93
84026;BME280;74110;45.660;25.582;2024-02-21T07:37:44;95761.19;;;6.35;70.53
84026;BME280;74110;45.660;25.582;2024-02-21T07:47:33;95755.02;;;6.40;69.50
84026;BME280;74110;45.660;25.582;2024-02-21T07:50:16;95757.46;;;6.43;70.09
84026;BME280;74110;45.660;25.582;2024-02-21T07:53:16;95754.58;;;6.57;70.72
84026;BME280;74110;45.660;25.582;2024-02-21T07:56:01;95753.42;;;6.73;70.16
84026;BME280;74110;45.660;25.582;2024-02-21T07:58:43;95758.48;;;6.89;69.60
84026;BME280;74110;45.660;25.582;2024-02-21T08:02:03;95753.72;;;7.07;69.15
84026;BME280;74110;45.660;25.582;2024-02-21T08:12:49;95757.68;;;7.31;67.70
84026;BME280;74110;45.660;25.582;2024-02-21T08:15:21;95757.96;;;7.37;67.48
84026;BME280;74110;45.660;25.582;2024-02-21T08:18:33;95753.25;;;7.41;66.56
84026;BME280;74110;45.660;25.582;2024-02-21T08:21:07;95758.55;;;7.44;67.14
84026;BME280;74110;45.660;25.582;2024-02-21T08:23:36;95755.44;;;7.55;67.47
84026;BME280;74110;45.660;25.582;2024-02-21T08:26:11;95759.36;;;7.66;66.62
84026;BME280;74110;45.660;25.582;2024-02-21T08:28:40;95758.77;;;7.71;65.69
84026;BME280;74110;45.660;25.582;2024-02-21T08:31:11;95760.95;;;7.71;65.45
84026;BME280;74110;45.660;25.582;2024-02-21T08:33:47;95758.98;;;7.74;65.34
84026;BME280;74110;45.660;25.582;2024-02-21T08:36:20;95760.20;;;7.76;64.89
84026;BME280;74110;45.660;25.582;2024-02-21T08:38:54;95759.77;;;7.73;64.84
84026;BME280;74110;45.660;25.582;2024-02-21T08:41:27;95759.73;;;7.72;64.92
84026;BME280;74110;45.660;25.582;2024-02-21T08:44:15;95758.08;;;7.80;65.10
84026;BME280;74110;45.660;25.582;2024-02-21T08:46:44;95763.33;;;7.85;64.66
84026;BME280;74110;45.660;25.582;2024-02-21T08:49:16;95763.85;;;7.91;64.63
84026;BME280;74110;45.660;25.582;2024-02-21T08:51:48;95764.75;;;7.94;64.56
84026;BME280;74110;45.660;25.582;2024-02-21T08:54:26;95764.89;;;8.01;65.15
84026;BME280;74110;45.660;25.582;2024-02-21T08:57:27;95767.11;;;8.22;64.59
84026;BME280;74110;45.660;25.582;2024-02-21T09:00:01;95762.29;;;8.47;63.94
84026;BME280;74110;45.660;25.582;2024-02-21T09:03:03;95760.69;;;8.69;62.92
84026;BME280;74110;45.660;25.582;2024-02-21T09:05:36;95755.56;;;9.07;62.72
84026;BME280;74110;45.660;25.582;2024-02-21T09:08:06;95757.44;;;9.57;60.97
84026;BME280;74110;45.660;25.582;2024-02-21T09:10:51;95756.05;;;9.66;57.47
84026;BME280;74110;45.660;25.582;2024-02-21T09:13:35;95753.95;;;9.97;59.92
84026;BME280;74110;45.660;25.582;2024-02-21T09:16:04;95750.00;;;10.33;57.93
84026;BME280;74110;45.660;25.582;2024-02-21T09:18:37;95752.45;;;10.22;55.38
84026;BME280;74110;45.660;25.582;2024-02-21T09:21:17;95749.08;;;10.50;55.81
84026;BME280;74110;45.660;25.582;2024-02-21T09:23:54;95750.61;;;10.42;55.48
84026;BME280;74110;45.660;25.582;2024-02-21T09:26:30;95750.04;;;10.64;56.25
84026;BME280;74110;45.660;25.582;2024-02-21T09:29:03;95745.67;;;10.78;54.87
84026;BME280;74110;45.660;25.582;2024-02-21T09:32:00;95741.27;;;11.03;54.91
84026;BME280;74110;45.660;25.582;2024-02-21T09:37:22;95736.88;;;11.29;54.47
84026;BME280;74110;45.660;25.582;2024-02-21T09:39:50;95732.45;;;11.62;52.28
84026;BME280;74110;45.660;25.582;2024-02-21T09:42:37;95733.35;;;11.93;51.73
84026;BME280;74110;45.660;25.582;2024-02-21T09:45:28;95736.77;;;12.29;51.66
84026;BME280;74110;45.660;25.582;2024-02-21T09:48:56;95735.10;;;12.61;50.71
84026;BME280;74110;45.660;25.582;2024-02-21T09:52:24;95732.87;;;12.85;48.39
84026;BME280;74110;45.660;25.582;2024-02-21T09:54:58;95726.36;;;12.60;46.71
84026;BME280;74110;45.660;25.582;2024-02-21T09:57:31;95727.02;;;12.53;46.40
84026;BME280;74110;45.660;25.582;2024-02-21T10:00:06;95728.22;;;12.27;46.41
84026;BME280;74110;45.660;25.582;2024-02-21T10:02:42;95721.31;;;12.49;46.28
84026;BME280;74110;45.660;25.582;2024-02-21T10:05:13;95721.83;;;12.87;46.24
84026;BME280;74110;45.660;25.582;2024-02-21T10:08:14;95715.65;;;13.00;39.93
84026;BME280;74110;45.660;25.582;2024-02-21T10:10:44;95714.45;;;13.24;38.95
84026;BME280;74110;45.660;25.582;2024-02-21T10:13:26;95706.99;;;13.49;41.18
84026;BME280;74110;45.660;25.582;2024-02-21T10:16:09;95705.61;;;13.81;41.79
84026;BME280;74110;45.660;25.582;2024-02-21T10:18:40;95703.41;;;13.49;41.13
84026;BME280;74110;45.660;25.582;2024-02-21T10:21:20;95702.22;;;13.27;42.93
84026;BME280;74110;45.660;25.582;2024-02-21T10:27:23;95687.91;;;12.52;44.57
84026;BME280;74110;45.660;25.582;2024-02-21T10:30:20;95685.46;;;12.27;44.79
84026;BME280;74110;45.660;25.582;2024-02-21T10:32:54;95682.01;;;12.21;45.88
84026;BME280;74110;45.660;25.582;2024-02-21T10:35:27;95680.80;;;11.99;44.51
84026;BME280;74110;45.660;25.582;2024-02-21T10:38:37;95679.92;;;12.10;43.92
84026;BME280;74110;45.660;25.582;2024-02-21T10:41:51;95676.84;;;12.48;41.87
84026;BME280;74110;45.660;25.582;2024-02-21T10:44:22;95666.65;;;12.19;42.87
84026;BME280;74110;45.660;25.582;2024-02-21T10:46:52;95663.79;;;12.14;43.38
84026;BME280;74110;45.660;25.582;2024-02-21T10:49:27;95661.31;;;11.99;43.54
84026;BME280;74110;45.660;25.582;2024-02-21T10:54:58;95651.80;;;12.06;44.14
84026;BME280;74110;45.660;25.582;2024-02-21T10:57:38;95647.39;;;12.60;42.79
84026;BME280;74110;45.660;25.582;2024-02-21T11:00:34;95644.13;;;12.87;40.88
84026;BME280;74110;45.660;25.582;2024-02-21T11:03:33;95641.47;;;12.98;41.16
84026;BME280;74110;45.660;25.582;2024-02-21T11:06:04;95637.27;;;12.89;41.09
84026;BME280;74110;45.660;25.582;2024-02-21T11:12:03;95629.25;;;11.79;42.80
84026;BME280;74110;45.660;25.582;2024-02-21T11:14:33;95628.55;;;11.35;43.79
84026;BME280;74110;45.660;25.582;2024-02-21T11:17:17;95623.71;;;10.93;44.54
84026;BME280;74110;45.660;25.582;2024-02-21T11:19:56;95623.02;;;10.55;45.32
84026;BME280;74110;45.660;25.582;2024-02-21T11:22:41;95624.85;;;10.33;45.31
84026;BME280;74110;45.660;25.582;2024-02-21T11:25:10;95618.80;;;10.27;45.69
84026;BME280;74110;45.660;25.582;2024-02-21T11:27:50;95611.52;;;10.40;45.71
84026;BME280;74110;45.660;25.582;2024-02-21T11:30:36;95611.90;;;10.28;45.88
84026;BME280;74110;45.660;25.582;2024-02-21T11:33:09;95608.59;;;10.36;45.46
84026;BME280;74110;45.660;25.582;2024-02-21T11:35:41;95608.23;;;10.90;45.06
84026;BME280;74110;45.660;25.582;2024-02-21T11:38:30;95610.36;;;11.50;43.57
84026;BME280;74110;45.660;25.582;2024-02-21T11:40:59;95605.70;;;11.94;42.52
84026;BME280;74110;45.660;25.582;2024-02-21T11:43:35;95606.84;;;12.24;41.53
84026;BME280;74110;45.660;25.582;2024-02-21T11:46:04;95602.21;;;12.52;40.87
84026;BME280;74110;45.660;25.582;2024-02-21T11:48:37;95601.02;;;12.70;40.02
84026;BME280;74110;45.660;25.582;2024-02-21T11:51:12;95600.22;;;12.70;39.95
84026;BME280;74110;45.660;25.582;2024-02-21T11:54:07;95599.82;;;12.90;38.60
84026;BME280;74110;45.660;25.582;2024-02-21T11:56:37;95591.08;;;13.25;37.69
84026;BME280;74110;45.660;25.582;2024-02-21T11:59:10;95589.84;;;13.50;38.44
84026;BME280;74110;45.660;25.582;2024-02-21T12:01:41;95584.02;;;13.77;37.63
84026;BME280;74110;45.660;25.582;2024-02-21T12:04:13;95581.73;;;13.86;36.91
84026;BME280;74110;45.660;25.582;2024-02-21T12:06:56;95577.29;;;13.83;36.40
84026;BME280;74110;45.660;25.582;2024-02-21T12:09:53;95578.77;;;13.77;37.54
84026;BME280;74110;45.660;25.582;2024-02-21T12:12:22;95580.80;;;13.75;37.58
84026;BME280;74110;45.660;25.582;2024-02-21T12:14:56;95578.19;;;13.90;37.69
84026;BME280;74110;45.660;25.582;2024-02-21T12:17:28;95573.61;;;14.21;37.65
84026;BME280;74110;45.660;25.582;2024-02-21T12:19:59;95569.66;;;14.19;36.30
84026;BME280;74110;45.660;25.582;2024-02-21T12:22:29;95568.79;;;14.24;37.56
84026;BME280;74110;45.660;25.582;2024-02-21T12:25:16;95563.19;;;14.03;36.55
84026;BME280;74110;45.660;25.582;2024-02-21T12:27:51;95558.44;;;13.72;37.26
84026;BME280;74110;45.660;25.582;2024-02-21T12:30:24;95554.64;;;13.68;37.88
84026;BME280;74110;45.660;25.582;2024-02-21T12:32:53;95553.94;;;13.70;37.74
84026;BME280;74110;45.660;25.582;2024-02-21T12:35:24;95553.08;;;13.92;37.65
84026;BME280;74110;45.660;25.582;2024-02-21T12:37:52;95548.59;;;13.85;36.69
84026;BME280;74110;45.660;25.582;2024-02-21T12:40:33;95548.61;;;13.99;36.57
84026;BME280;74110;45.660;25.582;2024-02-21T12:43:16;95550.67;;;13.96;36.92
84026;BME280;74110;45.660;25.582;2024-02-21T12:45:47;95546.48;;;14.03;36.93
84026;BME280;74110;45.660;25.582;2024-02-21T12:48:16;95543.69;;;14.13;36.63
84026;BME280;74110;45.660;25.582;2024-02-21T12:50:49;95537.64;;;14.23;36.59
84026;BME280;74110;45.660;25.582;2024-02-21T12:53:36;95540.23;;;14.31;36.80
84026;BME280;74110;45.660;25.582;2024-02-21T12:56:23;95537.81;;;14.38;36.05
84026;BME280;74110;45.660;25.582;2024-02-21T12:58:59;95535.63;;;14.34;36.10
84026;BME280;74110;45.660;25.582;2024-02-21T13:01:28;95533.71;;;14.37;36.16
84026;BME280;74110;45.660;25.582;2024-02-21T13:04:01;95533.63;;;14.38;36.86
84026;BME280;74110;45.660;25.582;2024-02-21T13:06:32;95532.29;;;14.19;35.93
84026;BME280;74110;45.660;25.582;2024-02-21T13:09:00;95534.64;;;13.80;36.88
84026;BME280;74110;45.660;25.582;2024-02-21T13:11:31;95532.45;;;13.49;37.65
84026;BME280;74110;45.660;25.582;2024-02-21T13:14:00;95533.50;;;13.41;37.81
84026;BME280;74110;45.660;25.582;2024-02-21T13:16:29;95534.91;;;13.29;37.57
84026;BME280;74110;45.660;25.582;2024-02-21T13:18:57;95533.05;;;13.29;37.45
84026;BME280;74110;45.660;25.582;2024-02-21T13:21:25;95527.69;;;13.45;37.70
84026;BME280;74110;45.660;25.582;2024-02-21T13:23:55;95524.73;;;13.35;37.24
84026;BME280;74110;45.660;25.582;2024-02-21T13:26:24;95525.23;;;13.24;38.03
84026;BME280;74110;45.660;25.582;2024-02-21T13:28:53;95523.08;;;13.14;38.21
84026;BME280;74110;45.660;25.582;2024-02-21T13:31:22;95523.84;;;13.07;37.84
84026;BME280;74110;45.660;25.582;2024-02-21T13:33:52;95519.18;;;12.98;37.88
84026;BME280;74110;45.660;25.582;2024-02-21T13:36:21;95517.46;;;12.99;37.92
84026;BME280;74110;45.660;25.582;2024-02-21T13:38:52;95517.79;;;13.01;37.98
84026;BME280;74110;45.660;25.582;2024-02-21T13:41:28;95517.20;;;13.10;37.94
84026;BME280;74110;45.660;25.582;2024-02-21T13:44:00;95518.01;;;13.09;37.88
84026;BME280;74110;45.660;25.582;2024-02-21T13:46:29;95516.77;;;13.00;37.95
84026;BME280;74110;45.660;25.582;2024-02-21T13:49:03;95516.73;;;12.90;38.83
84026;BME280;74110;45.660;25.582;2024-02-21T13:51:36;95517.70;;;12.92;38.70
84026;BME280;74110;45.660;25.582;2024-02-21T13:54:04;95511.26;;;12.94;38.87
84026;BME280;74110;45.660;25.582;2024-02-21T13:56:33;95510.63;;;12.89;38.56
84026;BME280;74110;45.660;25.582;2024-02-21T13:59:05;95508.79;;;12.83;38.82
84026;BME280;74110;45.660;25.582;2024-02-21T14:01:36;95506.48;;;12.70;39.23
84026;BME280;74110;45.660;25.582;2024-02-21T14:04:05;95506.91;;;12.32;38.79